createdAt,value
2023-02-21T00:04:53.000Z,4.21
2023-02-21T00:09:48.000Z,4.14
2023-02-21T00:14:42.000Z,4.01
2023-02-21T00:19:35.000Z,3.92
2023-02-21T00:24:30.000Z,4.29
2023-02-21T00:29:22.000Z,4.16
2023-02-21T00:34:20.000Z,4.02
2023-02-21T00:39:09.000Z,3.97
2023-02-21T00:44:03.000Z,3.86
2023-02-21T00:48:57.000Z,3.64
2023-02-21T00:53:51.000Z,3.66
2023-02-21T00:58:45.000Z,3.65
2023-02-21T01:03:39.000Z,3.54
2023-02-21T01:08:33.000Z,3.59
2023-02-21T01:13:23.000Z,3.71
2023-02-21T01:18:17.000Z,3.95
2023-02-21T01:23:11.000Z,4.46
2023-02-21T01:28:06.000Z,4.61
2023-02-21T01:33:00.000Z,4.78
2023-02-21T01:37:55.000Z,4.92
2023-02-21T01:42:49.000Z,5.05
2023-02-21T01:47:44.000Z,5.15
2023-02-21T01:52:37.000Z,5.24
2023-02-21T01:57:30.000Z,5.3
2023-02-21T02:02:24.000Z,5.33
2023-02-21T02:07:20.000Z,5.38
2023-02-21T02:12:11.000Z,5.38
2023-02-21T02:17:05.000Z,5.44
2023-02-21T02:21:59.000Z,5.53
2023-02-21T02:26:53.000Z,5.54
2023-02-21T02:31:47.000Z,5.56
2023-02-21T02:36:40.000Z,5.59
2023-02-21T02:41:34.000Z,5.65
2023-02-21T02:46:28.000Z,5.69
2023-02-21T02:51:23.000Z,5.71
2023-02-21T02:56:17.000Z,5.64
2023-02-21T03:01:11.000Z,5.6
2023-02-21T03:06:05.000Z,5.6
2023-02-21T03:11:00.000Z,5.48
2023-02-21T03:15:53.000Z,5.53
2023-02-21T03:20:47.000Z,5.55
2023-02-21T03:25:41.000Z,5.41
2023-02-21T03:30:35.000Z,5.42
2023-02-21T03:35:29.000Z,5.38
2023-02-21T03:40:23.000Z,5.27
2023-02-21T03:45:19.000Z,5.13
2023-02-21T03:50:10.000Z,5.02
2023-02-21T03:55:04.000Z,4.93
2023-02-21T03:59:58.000Z,4.78
2023-02-21T04:04:52.000Z,4.73
2023-02-21T04:09:46.000Z,4.63
2023-02-21T04:14:40.000Z,4.63
2023-02-21T04:19:34.000Z,4.71
2023-02-21T04:24:28.000Z,4.86
2023-02-21T04:29:23.000Z,5.01
2023-02-21T04:34:17.000Z,5.05
2023-02-21T04:39:11.000Z,5.08
2023-02-21T04:44:05.000Z,5.06
2023-02-21T04:49:00.000Z,5.05
2023-02-21T04:53:55.000Z,5.04
2023-02-21T04:58:48.000Z,5.03
2023-02-21T05:03:42.000Z,5.02
2023-02-21T05:08:36.000Z,5.03
2023-02-21T05:13:29.000Z,4.94
2023-02-21T05:18:23.000Z,4.71
2023-02-21T05:23:18.000Z,4.37
2023-02-21T05:28:12.000Z,4.16
2023-02-21T05:33:06.000Z,3.93
2023-02-21T05:38:00.000Z,3.83
2023-02-21T05:42:54.000Z,3.73
2023-02-21T05:47:47.000Z,3.75
2023-02-21T05:52:40.000Z,3.73
2023-02-21T05:57:33.000Z,3.64
2023-02-21T06:02:27.000Z,3.68
2023-02-21T06:07:21.000Z,3.67
2023-02-21T06:12:14.000Z,3.6
2023-02-21T06:17:09.000Z,3.5
2023-02-21T06:22:02.000Z,3.41
2023-02-21T06:26:56.000Z,3.32
2023-02-21T06:31:50.000Z,3.26
2023-02-21T06:36:42.000Z,3.22
2023-02-21T06:41:36.000Z,3.19
2023-02-21T06:46:30.000Z,3.24
2023-02-21T06:51:24.000Z,3.29
2023-02-21T06:56:19.000Z,3.26
2023-02-21T07:01:13.000Z,3.44
2023-02-21T07:06:07.000Z,3.53
2023-02-21T07:11:02.000Z,3.52
2023-02-21T07:15:56.000Z,3.66
2023-02-21T07:20:50.000Z,3.75
2023-02-21T07:25:42.000Z,3.96
2023-02-21T07:30:36.000Z,4.13
2023-02-21T07:35:34.000Z,4.27
2023-02-21T07:40:24.000Z,4.35
2023-02-21T07:45:18.000Z,4.57
2023-02-21T07:50:11.000Z,4.87
2023-02-21T07:55:06.000Z,5.26
2023-02-21T08:00:01.000Z,5.49
2023-02-21T08:04:55.000Z,5.93
2023-02-21T08:09:49.000Z,6.34
2023-02-21T08:14:43.000Z,6.13
2023-02-21T08:19:38.000Z,6.04
2023-02-21T08:24:32.000Z,6.06
2023-02-21T08:29:26.000Z,6.32
2023-02-21T08:34:20.000Z,6.19
2023-02-21T08:39:17.000Z,6.4
2023-02-21T08:44:10.000Z,6.33
2023-02-21T08:49:06.000Z,6.64
2023-02-21T08:53:57.000Z,6.8
2023-02-21T08:58:51.000Z,7.42
2023-02-21T09:03:45.000Z,7.19
2023-02-21T09:08:40.000Z,7.48
2023-02-21T09:13:35.000Z,7.51
2023-02-21T09:18:30.000Z,9.4
2023-02-21T09:23:26.000Z,11.13
2023-02-21T09:28:22.000Z,13.42
2023-02-21T09:33:15.000Z,11.26
2023-02-21T09:38:09.000Z,11.7
2023-02-21T09:43:03.000Z,12.64
2023-02-21T09:47:58.000Z,13.04
2023-02-21T09:52:53.000Z,14.28
2023-02-21T09:57:47.000Z,13.34
2023-02-21T10:02:42.000Z,14.65
2023-02-21T10:07:37.000Z,15.55
2023-02-21T10:12:32.000Z,16.23
2023-02-21T10:17:27.000Z,17.74
2023-02-21T10:22:22.000Z,16.49
2023-02-21T10:27:17.000Z,15.14
2023-02-21T10:32:11.000Z,17.37
2023-02-21T10:37:05.000Z,16.56
2023-02-21T10:42:00.000Z,15.36
2023-02-21T10:46:54.000Z,16.92
2023-02-21T10:51:49.000Z,15.86
2023-02-21T10:56:41.000Z,17.74
2023-02-21T11:01:36.000Z,17.35
2023-02-21T11:06:30.000Z,16.74
2023-02-21T11:11:25.000Z,16.16
2023-02-21T11:16:20.000Z,18.59
2023-02-21T11:21:15.000Z,18.51
2023-02-21T11:26:10.000Z,16.92
2023-02-21T11:31:04.000Z,17.79
2023-02-21T11:35:58.000Z,18.46
2023-02-21T11:40:53.000Z,18.76
2023-02-21T11:45:46.000Z,17.98
2023-02-21T11:50:42.000Z,17.88
2023-02-21T11:55:34.000Z,17.91
2023-02-21T12:00:28.000Z,20.52
2023-02-21T12:05:22.000Z,23.51
2023-02-21T12:10:18.000Z,25.28
2023-02-21T12:15:14.000Z,24.81
2023-02-21T12:20:08.000Z,23.01
2023-02-21T12:25:03.000Z,24.7
2023-02-21T12:29:57.000Z,24.79
2023-02-21T12:34:52.000Z,24.04
2023-02-21T12:39:46.000Z,22.51
2023-02-21T12:44:41.000Z,24.6
2023-02-21T12:49:35.000Z,25.6
2023-02-21T12:54:30.000Z,24.5
2023-02-21T12:59:23.000Z,26.6
2023-02-21T13:04:18.000Z,26.79
2023-02-21T13:09:13.000Z,27.12
2023-02-21T13:14:07.000Z,23.68
2023-02-21T13:19:01.000Z,25.48
2023-02-21T13:23:56.000Z,25.34
2023-02-21T13:28:50.000Z,24.58
2023-02-21T13:33:45.000Z,24.69
2023-02-21T13:38:36.000Z,24.14
2023-02-21T13:43:31.000Z,25.65
2023-02-21T13:48:26.000Z,27.04
2023-02-21T13:53:20.000Z,24.27
2023-02-21T13:58:14.000Z,24.94
2023-02-21T14:03:09.000Z,24.05
2023-02-21T14:08:02.000Z,22.82
2023-02-21T14:12:56.000Z,24
2023-02-21T14:17:51.000Z,25.54
2023-02-21T14:22:44.000Z,23.96
2023-02-21T14:27:38.000Z,24.43
2023-02-21T14:32:33.000Z,24.98
2023-02-21T14:37:27.000Z,24.56
2023-02-21T14:42:21.000Z,25.33
2023-02-21T14:47:16.000Z,25.31
2023-02-21T14:52:11.000Z,24.58
2023-02-21T14:57:04.000Z,20.75
2023-02-21T15:01:58.000Z,23.35
2023-02-21T15:06:50.000Z,23.78
2023-02-21T15:11:45.000Z,22.48
2023-02-21T15:16:38.000Z,22.38
2023-02-21T15:21:33.000Z,23.52
2023-02-21T15:26:27.000Z,22.09
2023-02-21T15:31:21.000Z,22.55
2023-02-21T15:36:15.000Z,22.87
2023-02-21T15:41:08.000Z,23.71
2023-02-21T15:46:02.000Z,20.84
2023-02-21T15:50:54.000Z,20.28
2023-02-21T15:55:48.000Z,19.66
2023-02-21T16:00:42.000Z,18.89
2023-02-21T16:05:35.000Z,19.8
2023-02-21T16:10:31.000Z,19.16
2023-02-21T16:15:22.000Z,17.69
2023-02-21T16:20:16.000Z,16.97
2023-02-21T16:25:10.000Z,15.8
2023-02-21T16:30:04.000Z,15.17
2023-02-21T16:34:56.000Z,14.91
2023-02-21T16:39:48.000Z,14.51
2023-02-21T16:44:42.000Z,14.07
2023-02-21T16:49:36.000Z,13.69
2023-02-21T16:54:30.000Z,13.4
2023-02-21T16:59:24.000Z,12.93
2023-02-21T17:04:17.000Z,12.61
2023-02-21T17:09:11.000Z,12.35
2023-02-21T17:14:05.000Z,12.08
2023-02-21T17:18:59.000Z,11.77
2023-02-21T17:23:53.000Z,11.62
2023-02-21T17:28:46.000Z,11.32
2023-02-21T17:33:40.000Z,11.12
2023-02-21T17:38:34.000Z,10.93
2023-02-21T17:43:28.000Z,10.76
2023-02-21T17:48:22.000Z,10.51
2023-02-21T17:53:16.000Z,10.32
2023-02-21T17:58:10.000Z,10.02
2023-02-21T18:03:04.000Z,9.88
2023-02-21T18:07:58.000Z,9.81
2023-02-21T18:12:52.000Z,9.54
2023-02-21T18:17:46.000Z,9.36
2023-02-21T18:22:42.000Z,9.23
2023-02-21T18:27:34.000Z,9.02
2023-02-21T18:32:29.000Z,8.91
2023-02-21T18:37:23.000Z,8.84
2023-02-21T18:42:17.000Z,8.72
2023-02-21T18:47:12.000Z,8.55
2023-02-21T18:52:03.000Z,8.39
2023-02-21T18:56:57.000Z,8.39
2023-02-21T19:01:51.000Z,8.3
2023-02-21T19:06:45.000Z,8.04
2023-02-21T19:11:40.000Z,7.88
2023-02-21T19:16:32.000Z,7.78
2023-02-21T19:21:26.000Z,7.68
2023-02-21T19:26:20.000Z,7.55
2023-02-21T19:31:13.000Z,7.56
2023-02-21T19:36:07.000Z,7.49
2023-02-21T19:41:01.000Z,7.38
2023-02-21T19:45:55.000Z,7.31
2023-02-21T19:50:49.000Z,7.24
2023-02-21T19:55:44.000Z,7.09
2023-02-21T20:00:37.000Z,6.9
2023-02-21T20:05:31.000Z,6.75
2023-02-21T20:10:25.000Z,6.68
2023-02-21T20:15:20.000Z,6.62
2023-02-21T20:20:14.000Z,6.58
2023-02-21T20:25:08.000Z,6.51
2023-02-21T20:30:02.000Z,6.47
2023-02-21T20:34:56.000Z,6.38
2023-02-21T20:39:50.000Z,6.32
2023-02-21T20:44:44.000Z,6.14
2023-02-21T20:49:38.000Z,6.02
2023-02-21T20:54:29.000Z,5.94
2023-02-21T20:59:23.000Z,5.87
2023-02-21T21:04:18.000Z,5.84
2023-02-21T21:09:12.000Z,5.89
2023-02-21T21:14:07.000Z,5.7
2023-02-21T21:19:00.000Z,5.52
2023-02-21T21:23:55.000Z,5.46
2023-02-21T21:28:48.000Z,5.47
2023-02-21T21:33:41.000Z,5.51
2023-02-21T21:38:35.000Z,5.49
2023-02-21T21:43:29.000Z,5.48
2023-02-21T21:48:22.000Z,5.38
2023-02-21T21:53:17.000Z,5.36
2023-02-21T21:58:14.000Z,5.27
2023-02-21T22:03:03.000Z,5.17
2023-02-21T22:07:57.000Z,5.05
2023-02-21T22:12:50.000Z,5.01
2023-02-21T22:17:44.000Z,4.96
2023-02-21T22:22:35.000Z,4.9
2023-02-21T22:27:29.000Z,4.9
2023-02-21T22:32:20.000Z,4.88
2023-02-21T22:37:15.000Z,4.76
2023-02-21T22:42:08.000Z,4.63
2023-02-21T22:47:02.000Z,4.59
2023-02-21T22:51:56.000Z,4.46
2023-02-21T22:56:51.000Z,4.38
2023-02-21T23:01:42.000Z,4.31
2023-02-21T23:06:35.000Z,4.19
2023-02-21T23:11:29.000Z,4.28
2023-02-21T23:16:24.000Z,4.31
2023-02-21T23:21:18.000Z,4.31
2023-02-21T23:26:12.000Z,4.31
2023-02-21T23:31:06.000Z,4.24
2023-02-21T23:36:00.000Z,4.17
2023-02-21T23:40:57.000Z,4.02
2023-02-21T23:45:47.000Z,3.93
2023-02-21T23:50:41.000Z,3.89
2023-02-21T23:55:34.000Z,3.72
